sensor_id;sensor_type;location;lat;lon;timestamp;P1;durP1;ratioP1;P2;durP2;ratioP2
65358;SDS011;52491;45.900;6.346;2023-05-18T00:02:04;0.63;;;0.60;;
65358;SDS011;52491;45.900;6.346;2023-05-18T00:04:30;1.05;;;0.60;;
65358;SDS011;52491;45.900;6.346;2023-05-18T00:06:58;0.47;;;0.47;;
65358;SDS011;52491;45.900;6.346;2023-05-18T00:09:31;0.40;;;0.40;;
65358;SDS011;52491;45.900;6.346;2023-05-18T00:11:58;0.80;;;0.60;;
65358;SDS011;52491;45.900;6.346;2023-05-18T00:14:25;0.68;;;0.45;;
65358;SDS011;52491;45.900;6.346;2023-05-18T00:16:51;0.70;;;0.50;;
65358;SDS011;52491;45.900;6.346;2023-05-18T00:19:22;0.40;;;0.40;;
65358;SDS011;52491;45.900;6.346;2023-05-18T00:21:49;1.10;;;0.50;;
65358;SDS011;52491;45.900;6.346;2023-05-18T00:24:16;0.73;;;0.50;;
65358;SDS011;52491;45.900;6.346;2023-05-18T00:26:43;0.82;;;0.68;;
65358;SDS011;52491;45.900;6.346;2023-05-18T00:29:10;0.90;;;0.55;;
65358;SDS011;52491;45.900;6.346;2023-05-18T00:31:36;0.40;;;0.40;;
65358;SDS011;52491;45.900;6.346;2023-05-18T00:34:07;0.93;;;0.45;;
65358;SDS011;52491;45.900;6.346;2023-05-18T00:36:33;0.50;;;0.50;;
65358;SDS011;52491;45.900;6.346;2023-05-18T00:39:00;1.42;;;0.40;;
65358;SDS011;52491;45.900;6.346;2023-05-18T00:41:26;1.02;;;0.60;;
65358;SDS011;52491;45.900;6.346;2023-05-18T00:43:53;0.50;;;0.50;;
65358;SDS011;52491;45.900;6.346;2023-05-18T00:46:19;1.23;;;0.65;;
65358;SDS011;52491;45.900;6.346;2023-05-18T00:48:45;0.93;;;0.68;;
65358;SDS011;52491;45.900;6.346;2023-05-18T00:51:11;0.68;;;0.60;;
65358;SDS011;52491;45.900;6.346;2023-05-18T00:53:37;0.50;;;0.40;;
65358;SDS011;52491;45.900;6.346;2023-05-18T00:56:03;0.55;;;0.50;;
65358;SDS011;52491;45.900;6.346;2023-05-18T00:58:29;0.43;;;0.40;;
65358;SDS011;52491;45.900;6.346;2023-05-18T01:00:55;1.45;;;0.50;;
65358;SDS011;52491;45.900;6.346;2023-05-18T01:03:21;0.50;;;0.50;;
65358;SDS011;52491;45.900;6.346;2023-05-18T01:05:48;0.50;;;0.50;;
65358;SDS011;52491;45.900;6.346;2023-05-18T01:08:22;0.40;;;0.40;;
65358;SDS011;52491;45.900;6.346;2023-05-18T01:10:53;1.05;;;0.50;;
65358;SDS011;52491;45.900;6.346;2023-05-18T01:13:30;0.47;;;0.47;;
65358;SDS011;52491;45.900;6.346;2023-05-18T01:16:08;0.80;;;0.65;;
65358;SDS011;52491;45.900;6.346;2023-05-18T01:18:40;0.70;;;0.50;;
65358;SDS011;52491;45.900;6.346;2023-05-18T01:21:17;0.93;;;0.70;;
65358;SDS011;52491;45.900;6.346;2023-05-18T01:26:53;0.80;;;0.70;;
65358;SDS011;52491;45.900;6.346;2023-05-18T01:29:24;1.45;;;0.68;;
65358;SDS011;52491;45.900;6.346;2023-05-18T01:31:54;0.30;;;0.30;;
65358;SDS011;52491;45.900;6.346;2023-05-18T01:34:19;3.33;;;0.80;;
65358;SDS011;52491;45.900;6.346;2023-05-18T01:36:45;0.70;;;0.52;;
65358;SDS011;52491;45.900;6.346;2023-05-18T01:39:11;1.20;;;0.65;;
65358;SDS011;52491;45.900;6.346;2023-05-18T01:41:38;0.52;;;0.35;;
65358;SDS011;52491;45.900;6.346;2023-05-18T01:44:11;0.55;;;0.30;;
65358;SDS011;52491;45.900;6.346;2023-05-18T01:52:02;1.58;;;0.40;;
65358;SDS011;52491;45.900;6.346;2023-05-18T01:54:31;1.73;;;0.68;;
65358;SDS011;52491;45.900;6.346;2023-05-18T01:56:58;0.80;;;0.50;;
65358;SDS011;52491;45.900;6.346;2023-05-18T01:59:25;0.43;;;0.30;;
65358;SDS011;52491;45.900;6.346;2023-05-18T02:01:50;1.27;;;0.55;;
65358;SDS011;52491;45.900;6.346;2023-05-18T02:04:16;0.47;;;0.47;;
65358;SDS011;52491;45.900;6.346;2023-05-18T02:06:41;0.50;;;0.50;;
65358;SDS011;52491;45.900;6.346;2023-05-18T02:09:07;0.50;;;0.50;;
65358;SDS011;52491;45.900;6.346;2023-05-18T02:11:33;0.82;;;0.60;;
65358;SDS011;52491;45.900;6.346;2023-05-18T02:13:58;1.35;;;0.40;;
65358;SDS011;52491;45.900;6.346;2023-05-18T02:16:25;0.88;;;0.63;;
65358;SDS011;52491;45.900;6.346;2023-05-18T02:18:50;0.98;;;0.50;;
65358;SDS011;52491;45.900;6.346;2023-05-18T02:21:17;0.60;;;0.50;;
65358;SDS011;52491;45.900;6.346;2023-05-18T02:23:43;0.63;;;0.50;;
65358;SDS011;52491;45.900;6.346;2023-05-18T02:26:08;0.40;;;0.40;;
65358;SDS011;52491;45.900;6.346;2023-05-18T02:28:34;0.85;;;0.50;;
65358;SDS011;52491;45.900;6.346;2023-05-18T02:31:07;0.90;;;0.57;;
65358;SDS011;52491;45.900;6.346;2023-05-18T02:33:33;0.85;;;0.40;;
65358;SDS011;52491;45.900;6.346;2023-05-18T02:36:06;0.90;;;0.68;;
65358;SDS011;52491;45.900;6.346;2023-05-18T02:38:36;1.25;;;0.57;;
65358;SDS011;52491;45.900;6.346;2023-05-18T02:41:07;0.70;;;0.50;;
65358;SDS011;52491;45.900;6.346;2023-05-18T02:43:33;0.35;;;0.35;;
65358;SDS011;52491;45.900;6.346;2023-05-18T02:45:59;0.80;;;0.60;;
65358;SDS011;52491;45.900;6.346;2023-05-18T02:48:25;0.43;;;0.40;;
65358;SDS011;52491;45.900;6.346;2023-05-18T02:50:51;0.70;;;0.70;;
65358;SDS011;52491;45.900;6.346;2023-05-18T02:53:17;4.70;;;0.98;;
65358;SDS011;52491;45.900;6.346;2023-05-18T02:55:42;0.55;;;0.40;;
65358;SDS011;52491;45.900;6.346;2023-05-18T02:58:11;0.68;;;0.50;;
65358;SDS011;52491;45.900;6.346;2023-05-18T03:00:40;0.57;;;0.43;;
65358;SDS011;52491;45.900;6.346;2023-05-18T03:03:06;0.50;;;0.45;;
65358;SDS011;52491;45.900;6.346;2023-05-18T03:05:35;0.55;;;0.55;;
65358;SDS011;52491;45.900;6.346;2023-05-18T03:08:01;0.52;;;0.40;;
65358;SDS011;52491;45.900;6.346;2023-05-18T03:10:27;0.45;;;0.45;;
65358;SDS011;52491;45.900;6.346;2023-05-18T03:12:52;0.73;;;0.60;;
65358;SDS011;52491;45.900;6.346;2023-05-18T03:15:18;0.80;;;0.50;;
65358;SDS011;52491;45.900;6.346;2023-05-18T03:17:44;0.40;;;0.40;;
65358;SDS011;52491;45.900;6.346;2023-05-18T03:20:10;0.63;;;0.50;;
65358;SDS011;52491;45.900;6.346;2023-05-18T03:22:38;0.50;;;0.50;;
65358;SDS011;52491;45.900;6.346;2023-05-18T03:25:04;1.27;;;0.57;;
65358;SDS011;52491;45.900;6.346;2023-05-18T03:27:30;2.28;;;0.75;;
65358;SDS011;52491;45.900;6.346;2023-05-18T03:29:56;1.45;;;0.60;;
65358;SDS011;52491;45.900;6.346;2023-05-18T03:32:22;0.40;;;0.40;;
65358;SDS011;52491;45.900;6.346;2023-05-18T03:34:49;0.25;;;0.25;;
65358;SDS011;52491;45.900;6.346;2023-05-18T03:37:17;1.38;;;0.40;;
65358;SDS011;52491;45.900;6.346;2023-05-18T03:39:42;0.60;;;0.40;;
65358;SDS011;52491;45.900;6.346;2023-05-18T03:42:08;1.05;;;0.55;;
65358;SDS011;52491;45.900;6.346;2023-05-18T03:44:34;0.40;;;0.30;;
65358;SDS011;52491;45.900;6.346;2023-05-18T03:46:59;0.43;;;0.43;;
65358;SDS011;52491;45.900;6.346;2023-05-18T03:49:25;0.43;;;0.43;;
65358;SDS011;52491;45.900;6.346;2023-05-18T03:51:51;1.15;;;0.47;;
65358;SDS011;52491;45.900;6.346;2023-05-18T03:54:18;0.82;;;0.50;;
65358;SDS011;52491;45.900;6.346;2023-05-18T03:56:45;0.35;;;0.32;;
65358;SDS011;52491;45.900;6.346;2023-05-18T03:59:12;3.50;;;0.63;;
65358;SDS011;52491;45.900;6.346;2023-05-18T04:01:38;0.47;;;0.47;;
65358;SDS011;52491;45.900;6.346;2023-05-18T04:04:06;1.08;;;0.73;;
65358;SDS011;52491;45.900;6.346;2023-05-18T04:06:32;1.05;;;0.38;;
65358;SDS011;52491;45.900;6.346;2023-05-18T04:08:59;0.52;;;0.47;;
65358;SDS011;52491;45.900;6.346;2023-05-18T04:11:31;0.47;;;0.47;;
65358;SDS011;52491;45.900;6.346;2023-05-18T04:13:57;0.80;;;0.47;;
65358;SDS011;52491;45.900;6.346;2023-05-18T04:16:25;1.08;;;0.63;;
65358;SDS011;52491;45.900;6.346;2023-05-18T04:18:51;0.32;;;0.32;;
65358;SDS011;52491;45.900;6.346;2023-05-18T04:21:17;0.60;;;0.57;;
65358;SDS011;52491;45.900;6.346;2023-05-18T04:23:43;0.90;;;0.45;;
65358;SDS011;52491;45.900;6.346;2023-05-18T04:26:09;1.13;;;0.50;;
65358;SDS011;52491;45.900;6.346;2023-05-18T04:28:35;0.40;;;0.40;;
65358;SDS011;52491;45.900;6.346;2023-05-18T04:31:01;0.70;;;0.52;;
65358;SDS011;52491;45.900;6.346;2023-05-18T04:33:28;0.55;;;0.45;;
65358;SDS011;52491;45.900;6.346;2023-05-18T04:35:53;0.45;;;0.40;;
65358;SDS011;52491;45.900;6.346;2023-05-18T04:38:19;0.80;;;0.50;;
65358;SDS011;52491;45.900;6.346;2023-05-18T04:40:48;0.70;;;0.40;;
65358;SDS011;52491;45.900;6.346;2023-05-18T04:43:15;0.40;;;0.40;;
65358;SDS011;52491;45.900;6.346;2023-05-18T04:45:41;0.40;;;0.35;;
65358;SDS011;52491;45.900;6.346;2023-05-18T04:48:10;0.45;;;0.40;;
65358;SDS011;52491;45.900;6.346;2023-05-18T04:50:36;1.23;;;0.50;;
65358;SDS011;52491;45.900;6.346;2023-05-18T04:53:02;0.90;;;0.50;;
65358;SDS011;52491;45.900;6.346;2023-05-18T04:55:30;1.20;;;0.73;;
65358;SDS011;52491;45.900;6.346;2023-05-18T04:57:57;0.73;;;0.55;;
65358;SDS011;52491;45.900;6.346;2023-05-18T05:00:27;0.80;;;0.40;;
65358;SDS011;52491;45.900;6.346;2023-05-18T05:02:54;0.80;;;0.52;;
65358;SDS011;52491;45.900;6.346;2023-05-18T05:05:21;0.68;;;0.57;;
65358;SDS011;52491;45.900;6.346;2023-05-18T05:07:50;0.75;;;0.43;;
65358;SDS011;52491;45.900;6.346;2023-05-18T05:10:22;0.93;;;0.40;;
65358;SDS011;52491;45.900;6.346;2023-05-18T05:12:48;0.63;;;0.43;;
65358;SDS011;52491;45.900;6.346;2023-05-18T05:15:15;0.63;;;0.60;;
65358;SDS011;52491;45.900;6.346;2023-05-18T05:17:40;0.52;;;0.38;;
65358;SDS011;52491;45.900;6.346;2023-05-18T05:20:06;0.68;;;0.45;;
65358;SDS011;52491;45.900;6.346;2023-05-18T05:22:32;0.93;;;0.50;;
65358;SDS011;52491;45.900;6.346;2023-05-18T05:24:58;0.52;;;0.40;;
65358;SDS011;52491;45.900;6.346;2023-05-18T05:27:23;0.75;;;0.55;;
65358;SDS011;52491;45.900;6.346;2023-05-18T05:29:50;0.70;;;0.70;;
65358;SDS011;52491;45.900;6.346;2023-05-18T05:32:16;0.60;;;0.40;;
65358;SDS011;52491;45.900;6.346;2023-05-18T05:34:41;2.05;;;0.50;;
65358;SDS011;52491;45.900;6.346;2023-05-18T05:37:10;0.60;;;0.60;;
65358;SDS011;52491;45.900;6.346;2023-05-18T05:39:37;0.40;;;0.40;;
65358;SDS011;52491;45.900;6.346;2023-05-18T05:42:02;1.85;;;0.88;;
65358;SDS011;52491;45.900;6.346;2023-05-18T05:44:28;0.45;;;0.30;;
65358;SDS011;52491;45.900;6.346;2023-05-18T05:46:53;0.50;;;0.50;;
65358;SDS011;52491;45.900;6.346;2023-05-18T05:49:19;0.75;;;0.47;;
65358;SDS011;52491;45.900;6.346;2023-05-18T05:51:45;0.95;;;0.95;;
65358;SDS011;52491;45.900;6.346;2023-05-18T05:54:10;0.63;;;0.47;;
65358;SDS011;52491;45.900;6.346;2023-05-18T05:56:36;0.80;;;0.47;;
65358;SDS011;52491;45.900;6.346;2023-05-18T05:59:01;0.47;;;0.47;;
65358;SDS011;52491;45.900;6.346;2023-05-18T06:01:27;0.77;;;0.55;;
65358;SDS011;52491;45.900;6.346;2023-05-18T06:03:53;0.65;;;0.50;;
65358;SDS011;52491;45.900;6.346;2023-05-18T06:06:18;0.70;;;0.50;;
65358;SDS011;52491;45.900;6.346;2023-05-18T06:08:44;0.45;;;0.45;;
65358;SDS011;52491;45.900;6.346;2023-05-18T06:11:10;0.73;;;0.55;;
65358;SDS011;52491;45.900;6.346;2023-05-18T06:13:36;0.50;;;0.40;;
65358;SDS011;52491;45.900;6.346;2023-05-18T06:16:01;1.05;;;0.50;;
65358;SDS011;52491;45.900;6.346;2023-05-18T06:18:27;0.60;;;0.43;;
65358;SDS011;52491;45.900;6.346;2023-05-18T06:20:52;0.30;;;0.28;;
65358;SDS011;52491;45.900;6.346;2023-05-18T06:23:18;0.70;;;0.60;;
65358;SDS011;52491;45.900;6.346;2023-05-18T06:25:47;2.25;;;0.95;;
65358;SDS011;52491;45.900;6.346;2023-05-18T06:28:13;0.65;;;0.50;;
65358;SDS011;52491;45.900;6.346;2023-05-18T06:30:38;0.55;;;0.55;;
65358;SDS011;52491;45.900;6.346;2023-05-18T06:33:05;0.80;;;0.65;;
65358;SDS011;52491;45.900;6.346;2023-05-18T06:35:31;0.38;;;0.30;;
65358;SDS011;52491;45.900;6.346;2023-05-18T06:37:57;1.35;;;0.73;;
65358;SDS011;52491;45.900;6.346;2023-05-18T06:40:23;1.35;;;0.60;;
65358;SDS011;52491;45.900;6.346;2023-05-18T06:42:48;0.52;;;0.47;;
65358;SDS011;52491;45.900;6.346;2023-05-18T06:45:14;0.73;;;0.63;;
65358;SDS011;52491;45.900;6.346;2023-05-18T06:47:40;0.77;;;0.40;;
65358;SDS011;52491;45.900;6.346;2023-05-18T06:50:06;0.65;;;0.60;;
65358;SDS011;52491;45.900;6.346;2023-05-18T06:52:33;0.50;;;0.50;;
65358;SDS011;52491;45.900;6.346;2023-05-18T06:54:58;0.60;;;0.60;;
65358;SDS011;52491;45.900;6.346;2023-05-18T06:57:25;1.15;;;0.80;;
65358;SDS011;52491;45.900;6.346;2023-05-18T06:59:51;0.52;;;0.30;;
65358;SDS011;52491;45.900;6.346;2023-05-18T07:02:20;0.85;;;0.68;;
65358;SDS011;52491;45.900;6.346;2023-05-18T07:04:46;0.57;;;0.52;;
65358;SDS011;52491;45.900;6.346;2023-05-18T07:07:13;0.65;;;0.40;;
65358;SDS011;52491;45.900;6.346;2023-05-18T07:09:39;0.43;;;0.43;;
65358;SDS011;52491;45.900;6.346;2023-05-18T07:12:07;0.47;;;0.47;;
65358;SDS011;52491;45.900;6.346;2023-05-18T07:14:33;0.80;;;0.57;;
65358;SDS011;52491;45.900;6.346;2023-05-18T07:16:59;0.60;;;0.60;;
65358;SDS011;52491;45.900;6.346;2023-05-18T07:19:24;0.57;;;0.57;;
65358;SDS011;52491;45.900;6.346;2023-05-18T07:21:50;0.65;;;0.47;;
65358;SDS011;52491;45.900;6.346;2023-05-18T07:24:15;2.35;;;1.00;;
65358;SDS011;52491;45.900;6.346;2023-05-18T07:26:41;0.38;;;0.38;;
65358;SDS011;52491;45.900;6.346;2023-05-18T07:29:06;1.83;;;0.50;;
65358;SDS011;52491;45.900;6.346;2023-05-18T07:31:32;0.47;;;0.40;;
65358;SDS011;52491;45.900;6.346;2023-05-18T07:33:58;0.88;;;0.55;;
65358;SDS011;52491;45.900;6.346;2023-05-18T07:36:24;0.63;;;0.43;;
65358;SDS011;52491;45.900;6.346;2023-05-18T07:38:51;1.38;;;0.52;;
65358;SDS011;52491;45.900;6.346;2023-05-18T07:41:19;1.58;;;0.40;;
65358;SDS011;52491;45.900;6.346;2023-05-18T07:43:47;0.80;;;0.45;;
65358;SDS011;52491;45.900;6.346;2023-05-18T07:46:13;0.75;;;0.43;;
65358;SDS011;52491;45.900;6.346;2023-05-18T07:48:39;0.73;;;0.50;;
65358;SDS011;52491;45.900;6.346;2023-05-18T07:51:04;1.05;;;0.70;;
65358;SDS011;52491;45.900;6.346;2023-05-18T07:53:30;0.73;;;0.60;;
65358;SDS011;52491;45.900;6.346;2023-05-18T07:55:56;1.77;;;0.70;;
65358;SDS011;52491;45.900;6.346;2023-05-18T07:58:22;1.38;;;0.77;;
65358;SDS011;52491;45.900;6.346;2023-05-18T08:00:47;0.73;;;0.70;;
65358;SDS011;52491;45.900;6.346;2023-05-18T08:03:13;0.47;;;0.47;;
65358;SDS011;52491;45.900;6.346;2023-05-18T08:05:39;0.52;;;0.40;;
65358;SDS011;52491;45.900;6.346;2023-05-18T08:08:04;0.52;;;0.45;;
65358;SDS011;52491;45.900;6.346;2023-05-18T08:10:30;0.40;;;0.40;;
65358;SDS011;52491;45.900;6.346;2023-05-18T08:12:55;0.60;;;0.45;;
65358;SDS011;52491;45.900;6.346;2023-05-18T08:15:21;0.73;;;0.68;;
65358;SDS011;52491;45.900;6.346;2023-05-18T08:17:46;0.50;;;0.50;;
65358;SDS011;52491;45.900;6.346;2023-05-18T08:20:12;0.77;;;0.43;;
65358;SDS011;52491;45.900;6.346;2023-05-18T08:22:38;0.80;;;0.70;;
65358;SDS011;52491;45.900;6.346;2023-05-18T08:25:03;1.00;;;0.50;;
65358;SDS011;52491;45.900;6.346;2023-05-18T08:27:29;0.93;;;0.60;;
65358;SDS011;52491;45.900;6.346;2023-05-18T08:29:55;0.77;;;0.50;;
65358;SDS011;52491;45.900;6.346;2023-05-18T08:32:21;0.77;;;0.55;;
65358;SDS011;52491;45.900;6.346;2023-05-18T08:34:46;0.70;;;0.40;;
65358;SDS011;52491;45.900;6.346;2023-05-18T08:37:14;0.40;;;0.40;;
65358;SDS011;52491;45.900;6.346;2023-05-18T08:39:39;0.80;;;0.60;;
65358;SDS011;52491;45.900;6.346;2023-05-18T08:44:42;1.23;;;0.63;;
65358;SDS011;52491;45.900;6.346;2023-05-18T08:47:14;0.50;;;0.50;;
65358;SDS011;52491;45.900;6.346;2023-05-18T08:49:41;1.02;;;0.60;;
65358;SDS011;52491;45.900;6.346;2023-05-18T08:52:07;1.50;;;0.40;;
65358;SDS011;52491;45.900;6.346;2023-05-18T08:54:34;1.13;;;0.77;;
65358;SDS011;52491;45.900;6.346;2023-05-18T08:57:01;1.05;;;0.50;;
65358;SDS011;52491;45.900;6.346;2023-05-18T08:59:34;0.55;;;0.55;;
65358;SDS011;52491;45.900;6.346;2023-05-18T09:02:05;1.33;;;0.57;;
65358;SDS011;52491;45.900;6.346;2023-05-18T09:04:31;0.77;;;0.57;;
65358;SDS011;52491;45.900;6.346;2023-05-18T09:06:58;1.75;;;0.75;;
65358;SDS011;52491;45.900;6.346;2023-05-18T09:09:27;0.80;;;0.50;;
65358;SDS011;52491;45.900;6.346;2023-05-18T09:11:54;0.93;;;0.68;;
65358;SDS011;52491;45.900;6.346;2023-05-18T09:14:20;0.70;;;0.50;;
65358;SDS011;52491;45.900;6.346;2023-05-18T09:16:50;0.70;;;0.68;;
65358;SDS011;52491;45.900;6.346;2023-05-18T09:19:17;9.10;;;0.75;;
65358;SDS011;52491;45.900;6.346;2023-05-18T09:21:42;3.45;;;0.50;;
65358;SDS011;52491;45.900;6.346;2023-05-18T09:24:08;0.52;;;0.50;;
65358;SDS011;52491;45.900;6.346;2023-05-18T09:26:33;3.13;;;0.50;;
65358;SDS011;52491;45.900;6.346;2023-05-18T09:28:59;0.85;;;0.43;;
65358;SDS011;52491;45.900;6.346;2023-05-18T09:31:25;1.02;;;0.70;;
65358;SDS011;52491;45.900;6.346;2023-05-18T09:33:51;0.65;;;0.50;;
65358;SDS011;52491;45.900;6.346;2023-05-18T09:36:22;1.15;;;0.75;;
65358;SDS011;52491;45.900;6.346;2023-05-18T09:38:50;1.05;;;0.60;;
65358;SDS011;52491;45.900;6.346;2023-05-18T09:41:17;2.38;;;0.73;;
65358;SDS011;52491;45.900;6.346;2023-05-18T09:43:43;2.63;;;0.70;;
65358;SDS011;52491;45.900;6.346;2023-05-18T09:46:10;3.90;;;1.00;;
65358;SDS011;52491;45.900;6.346;2023-05-18T09:48:41;3.42;;;0.93;;
65358;SDS011;52491;45.900;6.346;2023-05-18T09:51:11;2.95;;;0.70;;
65358;SDS011;52491;45.900;6.346;2023-05-18T09:53:40;1.15;;;0.98;;
65358;SDS011;52491;45.900;6.346;2023-05-18T09:56:07;1.27;;;0.77;;
65358;SDS011;52491;45.900;6.346;2023-05-18T09:58:38;0.98;;;0.60;;
65358;SDS011;52491;45.900;6.346;2023-05-18T10:01:05;6.93;;;0.90;;
65358;SDS011;52491;45.900;6.346;2023-05-18T10:03:34;0.93;;;0.50;;
65358;SDS011;52491;45.900;6.346;2023-05-18T10:06:08;1.00;;;0.60;;
65358;SDS011;52491;45.900;6.346;2023-05-18T10:11:02;2.70;;;0.40;;
65358;SDS011;52491;45.900;6.346;2023-05-18T10:13:29;2.80;;;1.30;;
65358;SDS011;52491;45.900;6.346;2023-05-18T10:16:00;5.20;;;2.55;;
65358;SDS011;52491;45.900;6.346;2023-05-18T10:18:32;5.45;;;2.38;;
65358;SDS011;52491;45.900;6.346;2023-05-18T10:21:00;7.10;;;3.30;;
65358;SDS011;52491;45.900;6.346;2023-05-18T10:23:31;9.73;;;4.82;;
65358;SDS011;52491;45.900;6.346;2023-05-18T10:26:03;9.98;;;5.45;;
65358;SDS011;52491;45.900;6.346;2023-05-18T10:28:38;16.77;;;7.90;;
65358;SDS011;52491;45.900;6.346;2023-05-18T10:31:06;14.02;;;8.13;;
65358;SDS011;52491;45.900;6.346;2023-05-18T10:33:33;16.73;;;8.60;;
65358;SDS011;52491;45.900;6.346;2023-05-18T10:36:01;13.50;;;7.93;;
65358;SDS011;52491;45.900;6.346;2023-05-18T10:38:29;18.00;;;9.60;;
65358;SDS011;52491;45.900;6.346;2023-05-18T10:40:55;16.85;;;9.13;;
65358;SDS011;52491;45.900;6.346;2023-05-18T10:43:24;16.65;;;9.52;;
65358;SDS011;52491;45.900;6.346;2023-05-18T10:45:52;19.75;;;10.02;;
65358;SDS011;52491;45.900;6.346;2023-05-18T10:48:20;17.10;;;8.57;;
65358;SDS011;52491;45.900;6.346;2023-05-18T10:50:47;18.45;;;10.38;;
65358;SDS011;52491;45.900;6.346;2023-05-18T10:53:15;17.10;;;10.32;;
65358;SDS011;52491;45.900;6.346;2023-05-18T10:55:46;19.27;;;10.02;;
65358;SDS011;52491;45.900;6.346;2023-05-18T10:58:14;21.30;;;10.27;;
65358;SDS011;52491;45.900;6.346;2023-05-18T11:00:43;17.65;;;9.63;;
65358;SDS011;52491;45.900;6.346;2023-05-18T11:03:13;21.20;;;10.38;;
65358;SDS011;52491;45.900;6.346;2023-05-18T11:05:40;16.75;;;8.63;;
65358;SDS011;52491;45.900;6.346;2023-05-18T11:08:06;14.43;;;8.50;;
65358;SDS011;52491;45.900;6.346;2023-05-18T11:13:06;15.65;;;9.00;;
65358;SDS011;52491;45.900;6.346;2023-05-18T11:18:17;15.50;;;8.93;;
65358;SDS011;52491;45.900;6.346;2023-05-18T11:20:44;15.38;;;7.70;;
65358;SDS011;52491;45.900;6.346;2023-05-18T11:23:10;15.27;;;8.88;;
65358;SDS011;52491;45.900;6.346;2023-05-18T11:25:39;15.68;;;8.82;;
65358;SDS011;52491;45.900;6.346;2023-05-18T11:28:08;16.73;;;9.55;;
65358;SDS011;52491;45.900;6.346;2023-05-18T11:33:10;19.40;;;8.75;;
65358;SDS011;52491;45.900;6.346;2023-05-18T11:38:19;16.65;;;7.85;;
65358;SDS011;52491;45.900;6.346;2023-05-18T11:40:46;21.52;;;8.55;;
65358;SDS011;52491;45.900;6.346;2023-05-18T11:43:21;13.38;;;7.50;;
65358;SDS011;52491;45.900;6.346;2023-05-18T11:45:52;13.65;;;6.75;;
65358;SDS011;52491;45.900;6.346;2023-05-18T11:48:20;33.60;;;8.65;;
65358;SDS011;52491;45.900;6.346;2023-05-18T11:50:53;16.67;;;8.02;;
65358;SDS011;52491;45.900;6.346;2023-05-18T11:53:23;18.10;;;8.13;;
65358;SDS011;52491;45.900;6.346;2023-05-18T11:55:53;16.10;;;7.93;;
65358;SDS011;52491;45.900;6.346;2023-05-18T11:58:19;14.38;;;7.97;;
65358;SDS011;52491;45.900;6.346;2023-05-18T12:00:47;16.88;;;7.82;;
65358;SDS011;52491;45.900;6.346;2023-05-18T12:03:13;13.18;;;7.07;;
65358;SDS011;52491;45.900;6.346;2023-05-18T12:05:42;10.80;;;6.63;;
65358;SDS011;52491;45.900;6.346;2023-05-18T12:08:16;17.08;;;5.78;;
65358;SDS011;52491;45.900;6.346;2023-05-18T12:10:50;11.48;;;6.15;;
65358;SDS011;52491;45.900;6.346;2023-05-18T12:13:16;9.80;;;6.22;;
65358;SDS011;52491;45.900;6.346;2023-05-18T12:15:42;11.55;;;6.57;;
65358;SDS011;52491;45.900;6.346;2023-05-18T12:18:09;11.98;;;6.10;;
65358;SDS011;52491;45.900;6.346;2023-05-18T12:20:37;13.80;;;6.38;;
65358;SDS011;52491;45.900;6.346;2023-05-18T12:23:05;12.55;;;5.63;;
65358;SDS011;52491;45.900;6.346;2023-05-18T12:25:30;9.85;;;5.25;;
65358;SDS011;52491;45.900;6.346;2023-05-18T12:27:58;12.65;;;6.22;;
65358;SDS011;52491;45.900;6.346;2023-05-18T12:30:27;10.45;;;5.75;;
65358;SDS011;52491;45.900;6.346;2023-05-18T12:32:59;9.13;;;5.28;;
65358;SDS011;52491;45.900;6.346;2023-05-18T12:35:27;9.75;;;5.32;;
65358;SDS011;52491;45.900;6.346;2023-05-18T12:37:54;12.25;;;5.88;;
65358;SDS011;52491;45.900;6.346;2023-05-18T12:40:25;9.23;;;4.90;;
65358;SDS011;52491;45.900;6.346;2023-05-18T12:42:56;9.85;;;4.85;;
65358;SDS011;52491;45.900;6.346;2023-05-18T12:45:25;17.23;;;5.53;;
65358;SDS011;52491;45.900;6.346;2023-05-18T12:47:53;8.75;;;5.15;;
65358;SDS011;52491;45.900;6.346;2023-05-18T12:50:20;8.88;;;4.68;;
65358;SDS011;52491;45.900;6.346;2023-05-18T12:52:49;9.23;;;5.28;;
65358;SDS011;52491;45.900;6.346;2023-05-18T12:55:19;11.60;;;6.15;;
65358;SDS011;52491;45.900;6.346;2023-05-18T13:00:35;7.90;;;4.15;;
65358;SDS011;52491;45.900;6.346;2023-05-18T13:03:06;7.28;;;4.57;;
65358;SDS011;52491;45.900;6.346;2023-05-18T13:05:34;7.57;;;4.22;;
65358;SDS011;52491;45.900;6.346;2023-05-18T13:07:59;11.80;;;4.78;;
65358;SDS011;52491;45.900;6.346;2023-05-18T13:10:28;8.45;;;4.60;;
65358;SDS011;52491;45.900;6.346;2023-05-18T13:12:58;9.23;;;3.88;;
65358;SDS011;52491;45.900;6.346;2023-05-18T13:15:35;8.95;;;4.53;;
65358;SDS011;52491;45.900;6.346;2023-05-18T13:18:08;8.88;;;4.43;;
65358;SDS011;52491;45.900;6.346;2023-05-18T13:23:05;10.23;;;4.32;;
65358;SDS011;52491;45.900;6.346;2023-05-18T13:25:33;9.65;;;4.70;;
65358;SDS011;52491;45.900;6.346;2023-05-18T13:27:58;6.03;;;4.05;;
65358;SDS011;52491;45.900;6.346;2023-05-18T13:30:25;7.63;;;3.25;;
65358;SDS011;52491;45.900;6.346;2023-05-18T13:32:51;8.55;;;4.30;;
65358;SDS011;52491;45.900;6.346;2023-05-18T13:35:17;8.23;;;4.05;;
65358;SDS011;52491;45.900;6.346;2023-05-18T13:37:44;6.75;;;3.78;;
65358;SDS011;52491;45.900;6.346;2023-05-18T13:40:11;6.82;;;3.95;;
65358;SDS011;52491;45.900;6.346;2023-05-18T13:42:40;9.70;;;4.75;;
65358;SDS011;52491;45.900;6.346;2023-05-18T13:45:06;10.68;;;3.75;;
65358;SDS011;52491;45.900;6.346;2023-05-18T13:47:32;7.10;;;4.03;;
65358;SDS011;52491;45.900;6.346;2023-05-18T13:49:58;7.25;;;3.95;;
65358;SDS011;52491;45.900;6.346;2023-05-18T13:52:23;8.27;;;4.00;;
65358;SDS011;52491;45.900;6.346;2023-05-18T13:54:49;10.70;;;4.30;;
65358;SDS011;52491;45.900;6.346;2023-05-18T13:57:14;7.20;;;3.88;;
65358;SDS011;52491;45.900;6.346;2023-05-18T13:59:40;6.68;;;3.63;;
65358;SDS011;52491;45.900;6.346;2023-05-18T14:02:06;3.45;;;2.83;;
65358;SDS011;52491;45.900;6.346;2023-05-18T14:04:31;5.60;;;3.08;;
65358;SDS011;52491;45.900;6.346;2023-05-18T14:06:57;12.50;;;4.07;;
65358;SDS011;52491;45.900;6.346;2023-05-18T14:09:25;5.47;;;3.30;;
65358;SDS011;52491;45.900;6.346;2023-05-18T14:11:52;3.97;;;2.42;;
65358;SDS011;52491;45.900;6.346;2023-05-18T14:14:18;4.13;;;3.38;;
65358;SDS011;52491;45.900;6.346;2023-05-18T14:16:44;7.53;;;4.18;;
65358;SDS011;52491;45.900;6.346;2023-05-18T14:19:10;4.95;;;3.08;;
65358;SDS011;52491;45.900;6.346;2023-05-18T14:21:36;5.20;;;3.10;;
65358;SDS011;52491;45.900;6.346;2023-05-18T14:24:01;7.60;;;3.40;;
65358;SDS011;52491;45.900;6.346;2023-05-18T14:26:31;5.40;;;2.80;;
65358;SDS011;52491;45.900;6.346;2023-05-18T14:28:57;12.30;;;3.72;;
65358;SDS011;52491;45.900;6.346;2023-05-18T14:31:23;4.75;;;2.53;;
65358;SDS011;52491;45.900;6.346;2023-05-18T14:33:48;4.95;;;2.70;;
65358;SDS011;52491;45.900;6.346;2023-05-18T14:36:14;3.83;;;2.63;;
65358;SDS011;52491;45.900;6.346;2023-05-18T14:38:39;5.22;;;3.08;;
65358;SDS011;52491;45.900;6.346;2023-05-18T14:41:07;4.68;;;2.47;;
65358;SDS011;52491;45.900;6.346;2023-05-18T14:43:33;4.50;;;2.40;;
65358;SDS011;52491;45.900;6.346;2023-05-18T14:45:58;5.68;;;2.35;;
65358;SDS011;52491;45.900;6.346;2023-05-18T14:48:24;4.25;;;2.88;;
65358;SDS011;52491;45.900;6.346;2023-05-18T14:50:50;4.82;;;3.17;;
65358;SDS011;52491;45.900;6.346;2023-05-18T14:53:15;3.63;;;2.65;;
65358;SDS011;52491;45.900;6.346;2023-05-18T14:55:41;3.40;;;2.47;;
65358;SDS011;52491;45.900;6.346;2023-05-18T14:58:06;4.50;;;2.70;;
65358;SDS011;52491;45.900;6.346;2023-05-18T15:00:34;4.70;;;2.55;;
65358;SDS011;52491;45.900;6.346;2023-05-18T15:03:00;5.07;;;3.08;;
65358;SDS011;52491;45.900;6.346;2023-05-18T15:05:27;10.68;;;2.92;;
65358;SDS011;52491;45.900;6.346;2023-05-18T15:07:53;3.95;;;3.00;;
65358;SDS011;52491;45.900;6.346;2023-05-18T15:10:18;4.28;;;2.35;;
65358;SDS011;52491;45.900;6.346;2023-05-18T15:12:47;4.72;;;2.63;;
65358;SDS011;52491;45.900;6.346;2023-05-18T15:15:13;5.82;;;3.53;;